Time;durP1;ratioP1;P1;durP2;ratioP2;P2;SDS_P1;SDS_P2;PMS_P1;PMS_P2;Temp;Humidity;BMP_temperature;BMP_pressure;BME280_temperature;BME280_humidity;BME280_pressure;Samples;Min_cycle;Max_cycle;Signal;HPM_P1;HPM_P2
2022/01/20 00:00:20;;;;;;;4.93;3.90;;;;;;;;;;5075143;28;20480;-67
2022/01/20 00:02:56;;;;;;;3.90;3.20;;;;;;;;;;5075160;28;20449;-68
2022/01/20 00:05:33;;;;;;;5.43;3.17;;;;;;;;;;5075416;28;20475;-67
2022/01/20 00:27:08;;;;;;;3.37;2.90;;;;;;;;;;5074818;28;20469;-67
2022/01/20 00:29:59;;;;;;;4.37;3.20;;;;;;;;;;5074775;28;20446;-67
2022/01/20 00:32:24;;;;;;;3.53;3.10;;;;;;;;;;5074500;28;20802;-68
2022/01/20 00:37:23;;;;;;;3.47;2.93;;;;;;;;;;5074739;28;20406;-68
2022/01/20 00:39:49;;;;;;;4.57;3.20;;;;;;;;;;5074518;28;20414;-67
2022/01/20 00:42:15;;;;;;;4.30;3.20;;;;;;;;;;5074503;28;20428;-67
2022/01/20 00:44:42;;;;;;;2.90;2.40;;;;;;;;;;5074542;28;20409;-68
2022/01/20 00:47:08;;;;;;;3.53;2.63;;;;;;;;;;5074426;28;20397;-68
2022/01/20 00:49:34;;;;;;;3.30;3.00;;;;;;;;;;5074316;28;20974;-67
2022/01/20 00:52:00;;;;;;;3.73;3.20;;;;;;;;;;5074301;28;20512;-67
2022/01/20 00:54:26;;;;;;;3.67;2.93;;;;;;;;;;5074269;28;20476;-68
2022/01/20 00:56:53;;;;;;;5.37;3.00;;;;;;;;;;5074158;28;20416;-68
2022/01/20 00:59:19;;;;;;;2.90;2.63;;;;;;;;;;5073903;28;20965;-68
2022/01/20 01:01:45;;;;;;;3.67;3.00;;;;;;;;;;5074087;28;20401;-68
2022/01/20 01:04:11;;;;;;;3.00;2.27;;;;;;;;;;5074123;28;20505;-68
2022/01/20 01:09:18;;;;;;;3.40;2.17;;;;;;;;;;5073953;28;20435;-67
2022/01/20 01:11:46;;;;;;;3.20;2.87;;;;;;;;;;5073864;28;20792;-68
2022/01/20 01:14:13;;;;;;;3.47;2.77;;;;;;;;;;5056083;28;20909;-68
2022/01/20 01:22:21;;;;;;;2.10;1.83;;;;;;;;;;5073966;28;20741;-68
2022/01/20 01:24:50;;;;;;;3.00;2.47;;;;;;;;;;5073007;28;20402;-68
2022/01/20 01:27:16;;;;;;;2.50;2.27;;;;;;;;;;5073688;28;20400;-67
2022/01/20 01:32:17;;;;;;;4.03;2.63;;;;;;;;;;5073582;28;20431;-67
2022/01/20 01:34:49;;;;;;;2.73;2.47;;;;;;;;;;5073444;28;20812;-68
2022/01/20 01:40:06;;;;;;;2.73;2.10;;;;;;;;;;5032215;28;20500;-68
2022/01/20 01:42:39;;;;;;;2.53;2.33;;;;;;;;;;5073419;28;20413;-67
2022/01/20 01:45:07;;;;;;;3.23;1.97;;;;;;;;;;5073439;28;20438;-68
2022/01/20 01:47:33;;;;;;;2.47;2.27;;;;;;;;;;5073249;28;20501;-67
2022/01/20 01:49:59;;;;;;;2.70;1.90;;;;;;;;;;5073349;28;20542;-68
2022/01/20 01:52:25;;;;;;;2.30;2.10;;;;;;;;;;5055327;28;20471;-68
2022/01/20 01:54:51;;;;;;;2.43;2.23;;;;;;;;;;5073196;28;20768;-68
2022/01/20 01:57:17;;;;;;;2.00;1.90;;;;;;;;;;5073225;28;20436;-67
2022/01/20 01:59:43;;;;;;;2.50;1.87;;;;;;;;;;5073109;28;20454;-67
2022/01/20 02:02:09;;;;;;;2.27;2.07;;;;;;;;;;5073138;28;20418;-67
2022/01/20 02:04:35;;;;;;;3.17;2.00;;;;;;;;;;5073158;28;20412;-67
2022/01/20 02:07:25;;;;;;;2.33;2.10;;;;;;;;;;5055210;28;20444;-68
2022/01/20 02:20:44;;;;;;;2.20;2.00;;;;;;;;;;5073423;28;20417;-67
2022/01/20 02:23:10;;;;;;;1.73;1.63;;;;;;;;;;5072906;28;20406;-67
2022/01/20 02:25:37;;;;;;;1.87;1.60;;;;;;;;;;5073022;28;20409;-67
2022/01/20 02:28:08;;;;;;;2.17;1.90;;;;;;;;;;5073032;28;20409;-67
2022/01/20 02:30:34;;;;;;;1.80;1.70;;;;;;;;;;5072886;28;20472;-67
2022/01/20 02:33:02;;;;;;;1.70;1.60;;;;;;;;;;5054852;28;20420;-67
2022/01/20 02:35:29;;;;;;;1.40;1.30;;;;;;;;;;5074971;28;20409;-67
2022/01/20 02:38:01;;;;;;;1.60;1.50;;;;;;;;;;5076869;28;20880;-67
2022/01/20 02:45:50;;;;;;;1.40;1.30;;;;;;;;;;5076843;28;20522;-67
2022/01/20 02:48:16;;;;;;;1.40;1.30;;;;;;;;;;5076734;28;20422;-67
2022/01/20 02:50:42;;;;;;;1.43;1.33;;;;;;;;;;5076661;28;20559;-67
2022/01/20 02:53:08;;;;;;;1.33;1.23;;;;;;;;;;5076131;28;20911;-67
2022/01/20 02:55:34;;;;;;;4.30;1.60;;;;;;;;;;5076537;28;20458;-67
2022/01/20 02:58:00;;;;;;;2.40;1.53;;;;;;;;;;5076576;28;20773;-66
2022/01/20 03:00:27;;;;;;;1.50;1.40;;;;;;;;;;5084701;28;20476;-69
2022/01/20 03:02:55;;;;;;;1.77;1.63;;;;;;;;;;5096664;28;20409;-68
2022/01/20 03:05:21;;;;;;;1.43;1.33;;;;;;;;;;5095467;28;20404;-67
2022/01/20 03:07:47;;;;;;;1.20;1.10;;;;;;;;;;5096592;28;20516;-69
2022/01/20 03:10:13;;;;;;;1.83;1.70;;;;;;;;;;5096479;28;20990;-67
2022/01/20 03:12:39;;;;;;;2.13;1.70;;;;;;;;;;5096392;28;20396;-67
2022/01/20 03:15:05;;;;;;;1.60;1.50;;;;;;;;;;5096471;28;20426;-67
2022/01/20 03:17:32;;;;;;;1.23;1.13;;;;;;;;;;5096518;28;20408;-68
2022/01/20 03:19:58;;;;;;;1.70;1.60;;;;;;;;;;5096475;28;20412;-66
2022/01/20 03:22:24;;;;;;;1.67;1.57;;;;;;;;;;5096305;28;20483;-68
2022/01/20 03:24:50;;;;;;;1.73;1.60;;;;;;;;;;5096250;28;20839;-69
2022/01/20 03:27:16;;;;;;;1.77;1.40;;;;;;;;;;5096249;28;20498;-69
2022/01/20 03:29:43;;;;;;;1.20;1.10;;;;;;;;;;5096087;28;20809;-67
2022/01/20 03:32:09;;;;;;;1.40;1.30;;;;;;;;;;5096155;28;20494;-67
2022/01/20 03:34:35;;;;;;;1.40;1.30;;;;;;;;;;5096061;28;20863;-67
2022/01/20 03:37:03;;;;;;;1.60;1.50;;;;;;;;;;5094735;28;20864;-67
2022/01/20 03:39:30;;;;;;;1.70;1.60;;;;;;;;;;5096109;28;20833;-67
2022/01/20 03:41:56;;;;;;;1.83;1.73;;;;;;;;;;5095887;28;20401;-67
2022/01/20 03:44:22;;;;;;;1.80;1.70;;;;;;;;;;5095874;28;20412;-67
2022/01/20 03:46:48;;;;;;;1.60;1.50;;;;;;;;;;5095012;28;20554;-67
2022/01/20 03:49:27;;;;;;;2.00;1.80;;;;;;;;;;5095802;28;20392;-67
2022/01/20 03:51:53;;;;;;;1.53;1.43;;;;;;;;;;5095722;28;20431;-67
2022/01/20 03:54:20;;;;;;;1.30;1.20;;;;;;;;;;5095662;28;20401;-67
2022/01/20 03:56:46;;;;;;;1.80;1.63;;;;;;;;;;5095720;28;20895;-67
2022/01/20 03:59:12;;;;;;;2.23;1.90;;;;;;;;;;5090938;28;20537;-67
2022/01/20 04:01:38;;;;;;;1.90;1.67;;;;;;;;;;5057212;28;20501;-67
2022/01/20 04:04:04;;;;;;;2.00;1.80;;;;;;;;;;5075413;28;20398;-67
2022/01/20 04:06:30;;;;;;;2.10;1.90;;;;;;;;;;5075163;28;20412;-67
2022/01/20 04:08:56;;;;;;;2.00;1.70;;;;;;;;;;5057189;28;20418;-67
2022/01/20 04:11:27;;;;;;;2.13;1.97;;;;;;;;;;5075199;28;20458;-67
2022/01/20 04:13:54;;;;;;;2.40;2.20;;;;;;;;;;5075058;28;20402;-67
2022/01/20 04:16:23;;;;;;;2.20;1.90;;;;;;;;;;5057137;28;20773;-67
2022/01/20 04:18:53;;;;;;;2.03;1.83;;;;;;;;;;5075044;28;20398;-67
2022/01/20 04:21:22;;;;;;;3.10;2.20;;;;;;;;;;5075086;28;20432;-67
2022/01/20 04:23:48;;;;;;;1.80;1.70;;;;;;;;;;5074966;28;20752;-67
2022/01/20 04:26:14;;;;;;;1.90;1.80;;;;;;;;;;5074829;28;20431;-67
2022/01/20 04:28:40;;;;;;;1.90;1.77;;;;;;;;;;5056834;28;20920;-68
2022/01/20 04:31:06;;;;;;;2.13;2.03;;;;;;;;;;5074712;28;20489;-67
2022/01/20 04:33:32;;;;;;;2.17;1.90;;;;;;;;;;5074668;28;20444;-67
2022/01/20 04:35:59;;;;;;;2.50;2.10;;;;;;;;;;5074594;28;20495;-67
2022/01/20 04:38:25;;;;;;;1.80;1.70;;;;;;;;;;5074632;28;20407;-67
2022/01/20 04:40:52;;;;;;;1.87;1.60;;;;;;;;;;5074529;28;20410;-67
2022/01/20 04:43:18;;;;;;;2.67;1.83;;;;;;;;;;5074441;28;20436;-68
2022/01/20 04:45:55;;;;;;;3.20;1.87;;;;;;;;;;5074551;28;20409;-68
2022/01/20 04:59:19;;;;;;;3.73;1.80;;;;;;;;;;5074251;28;20470;-69
2022/01/20 05:01:46;;;;;;;2.50;2.00;;;;;;;;;;5056256;28;20433;-68
2022/01/20 05:04:12;;;;;;;2.17;1.97;;;;;;;;;;5074184;28;20464;-67
2022/01/20 05:06:41;;;;;;;2.67;1.83;;;;;;;;;;5074186;28;20413;-68
2022/01/20 05:09:07;;;;;;;2.23;2.03;;;;;;;;;;5055978;28;20430;-69
2022/01/20 05:11:36;;;;;;;2.80;2.20;;;;;;;;;;5073828;28;20658;-68
2022/01/20 05:14:02;;;;;;;2.27;2.03;;;;;;;;;;5073724;28;20768;-67
2022/01/20 05:16:28;;;;;;;2.40;2.20;;;;;;;;;;5073824;28;20901;-68
2022/01/20 05:18:54;;;;;;;2.20;2.10;;;;;;;;;;5073828;28;20489;-68
2022/01/20 05:21:20;;;;;;;2.27;2.00;;;;;;;;;;5073735;28;20406;-67
2022/01/20 05:23:46;;;;;;;2.53;2.07;;;;;;;;;;5073727;28;20410;-67
2022/01/20 05:26:13;;;;;;;2.87;2.57;;;;;;;;;;5073646;28;20406;-67
2022/01/20 05:28:39;;;;;;;3.10;2.07;;;;;;;;;;5073572;28;20450;-67
2022/01/20 05:31:05;;;;;;;2.77;2.10;;;;;;;;;;5073478;28;20568;-67
2022/01/20 05:33:31;;;;;;;3.90;2.63;;;;;;;;;;5073472;28;20857;-67
2022/01/20 05:35:57;;;;;;;5.83;2.47;;;;;;;;;;5073517;28;20451;-69
2022/01/20 05:38:23;;;;;;;2.67;2.20;;;;;;;;;;5073485;28;20406;-68
2022/01/20 05:40:49;;;;;;;2.23;2.03;;;;;;;;;;5073453;28;20406;-68
2022/01/20 05:43:15;;;;;;;2.20;2.00;;;;;;;;;;5073404;28;20500;-67
2022/01/20 05:45:41;;;;;;;1.93;1.70;;;;;;;;;;5073420;28;20445;-67
2022/01/20 05:48:12;;;;;;;2.07;1.97;;;;;;;;;;5073374;28;20463;-68
2022/01/20 05:50:38;;;;;;;3.53;1.83;;;;;;;;;;5073375;28;20469;-68
2022/01/20 05:53:05;;;;;;;3.17;2.60;;;;;;;;;;5073142;28;20409;-69
2022/01/20 05:55:31;;;;;;;2.20;2.10;;;;;;;;;;5073317;28;20428;-69
2022/01/20 05:57:57;;;;;;;2.83;2.20;;;;;;;;;;5073262;28;20433;-68
2022/01/20 06:00:25;;;;;;;2.33;2.13;;;;;;;;;;5073068;28;20488;-69
2022/01/20 06:05:36;;;;;;;2.37;1.87;;;;;;;;;;5073291;28;20898;-69
2022/01/20 06:08:02;;;;;;;3.00;2.10;;;;;;;;;;5073202;28;20405;-69
2022/01/20 06:10:31;;;;;;;2.00;1.80;;;;;;;;;;5054545;28;20473;-69
2022/01/20 06:12:57;;;;;;;2.20;2.00;;;;;;;;;;5072965;28;20402;-69
2022/01/20 06:15:23;;;;;;;2.90;1.63;;;;;;;;;;5073075;28;20916;-69
2022/01/20 06:17:49;;;;;;;3.27;2.70;;;;;;;;;;5072994;28;20398;-68
2022/01/20 06:20:15;;;;;;;1.83;1.73;;;;;;;;;;5072991;28;20406;-71
2022/01/20 06:22:41;;;;;;;3.90;2.00;;;;;;;;;;5072928;28;20737;-70
2022/01/20 06:25:08;;;;;;;2.50;2.10;;;;;;;;;;5072990;28;20500;-69
2022/01/20 06:27:34;;;;;;;2.23;2.00;;;;;;;;;;5072916;28;20897;-70
2022/01/20 06:30:01;;;;;;;2.57;2.37;;;;;;;;;;5072849;28;20469;-72
2022/01/20 06:32:27;;;;;;;3.03;2.00;;;;;;;;;;5072855;28;20410;-73
2022/01/20 06:34:53;;;;;;;3.27;2.00;;;;;;;;;;5072944;28;20419;-69
2022/01/20 06:37:19;;;;;;;2.03;1.60;;;;;;;;;;5072973;28;20406;-68
2022/01/20 06:39:45;;;;;;;3.57;2.20;;;;;;;;;;5072785;28;20466;-69
2022/01/20 06:42:11;;;;;;;3.40;2.30;;;;;;;;;;5054844;28;20803;-71
2022/01/20 06:44:37;;;;;;;2.30;1.77;;;;;;;;;;5072869;28;20464;-70
2022/01/20 06:47:03;;;;;;;2.50;2.10;;;;;;;;;;5054756;28;20409;-69
2022/01/20 06:49:29;;;;;;;3.77;2.47;;;;;;;;;;5072728;28;20406;-69
2022/01/20 06:51:55;;;;;;;2.30;1.70;;;;;;;;;;5072670;28;20962;-67
2022/01/20 06:54:21;;;;;;;2.70;2.30;;;;;;;;;;5072490;28;20417;-67
2022/01/20 06:56:47;;;;;;;2.60;2.17;;;;;;;;;;5072612;28;20455;-67
2022/01/20 06:59:14;;;;;;;2.20;2.00;;;;;;;;;;5072296;28;20532;-71
2022/01/20 07:01:41;;;;;;;2.10;1.90;;;;;;;;;;5072619;28;20405;-73
2022/01/20 07:04:08;;;;;;;2.33;2.03;;;;;;;;;;5072614;28;20427;-73
2022/01/20 07:06:34;;;;;;;3.53;2.00;;;;;;;;;;5072530;28;20409;-71
2022/01/20 07:09:01;;;;;;;2.90;2.23;;;;;;;;;;5072472;28;20406;-72
2022/01/20 07:11:27;;;;;;;3.23;2.60;;;;;;;;;;5072405;28;20512;-73
2022/01/20 07:13:53;;;;;;;2.77;2.03;;;;;;;;;;5072283;28;20405;-70
2022/01/20 07:16:19;;;;;;;2.00;1.80;;;;;;;;;;5072404;28;20406;-73
2022/01/20 07:18:45;;;;;;;3.77;2.50;;;;;;;;;;5072359;28;20463;-72
2022/01/20 07:21:11;;;;;;;3.73;2.70;;;;;;;;;;5072491;28;20417;-72
2022/01/20 07:23:37;;;;;;;2.40;2.20;;;;;;;;;;5057974;28;20435;-73
2022/01/20 07:26:03;;;;;;;2.67;1.73;;;;;;;;;;5076028;28;20395;-71
2022/01/20 07:28:29;;;;;;;4.00;2.17;;;;;;;;;;5075898;28;20890;-72
2022/01/20 07:30:55;;;;;;;6.43;2.00;;;;;;;;;;5075774;28;20477;-69
2022/01/20 07:33:21;;;;;;;1.70;1.60;;;;;;;;;;5075705;28;20416;-70
2022/01/20 07:35:47;;;;;;;2.50;1.83;;;;;;;;;;5075893;28;20410;-72
2022/01/20 07:38:13;;;;;;;4.73;2.33;;;;;;;;;;5075892;28;20757;-73
2022/01/20 07:40:39;;;;;;;2.73;2.23;;;;;;;;;;5075764;28;20417;-69
2022/01/20 07:43:05;;;;;;;2.97;2.33;;;;;;;;;;5075549;28;20405;-69
2022/01/20 07:45:31;;;;;;;3.17;2.17;;;;;;;;;;5075590;28;20421;-70
2022/01/20 07:47:57;;;;;;;2.20;1.77;;;;;;;;;;5075564;28;20498;-70
2022/01/20 07:50:23;;;;;;;3.60;2.10;;;;;;;;;;5075374;28;20503;-70
2022/01/20 07:52:49;;;;;;;5.00;2.40;;;;;;;;;;5075183;28;20405;-68
2022/01/20 07:55:15;;;;;;;2.27;1.83;;;;;;;;;;5075421;28;20401;-68
2022/01/20 07:57:41;;;;;;;2.30;2.10;;;;;;;;;;5057839;28;20851;-68
2022/01/20 08:00:08;;;;;;;5.40;2.60;;;;;;;;;;5075060;28;20469;-72
2022/01/20 08:02:34;;;;;;;3.20;2.27;;;;;;;;;;5075414;28;20401;-71
2022/01/20 08:05:00;;;;;;;2.10;1.90;;;;;;;;;;5075361;28;20413;-73
2022/01/20 08:07:26;;;;;;;3.83;3.23;;;;;;;;;;5075291;28;20430;-74
2022/01/20 08:09:57;;;;;;;4.87;2.37;;;;;;;;;;5075125;28;20453;-74
2022/01/20 08:12:24;;;;;;;5.33;2.37;;;;;;;;;;5075117;28;20417;-72
2022/01/20 08:14:50;;;;;;;4.20;2.33;;;;;;;;;;5074880;28;20405;-72
2022/01/20 08:17:16;;;;;;;4.23;3.20;;;;;;;;;;5074879;28;20448;-74
2022/01/20 08:19:42;;;;;;;4.20;2.70;;;;;;;;;;5074998;28;20385;-73
2022/01/20 08:22:08;;;;;;;4.40;2.50;;;;;;;;;;5074758;28;20460;-72
2022/01/20 08:24:34;;;;;;;2.63;2.17;;;;;;;;;;5074778;28;20923;-73
2022/01/20 08:27:00;;;;;;;12.40;2.87;;;;;;;;;;5074979;28;20410;-72
2022/01/20 08:29:26;;;;;;;6.40;3.00;;;;;;;;;;5074853;28;20409;-70
2022/01/20 08:31:52;;;;;;;4.07;2.27;;;;;;;;;;5074611;28;20846;-71
2022/01/20 08:34:18;;;;;;;3.80;2.40;;;;;;;;;;5074280;28;20402;-69
2022/01/20 08:36:44;;;;;;;2.57;1.97;;;;;;;;;;5074712;28;20412;-69
2022/01/20 08:39:57;;;;;;;6.77;2.90;;;;;;;;;;5056811;28;20448;-69
2022/01/20 08:41:58;;;;;;;4.43;2.53;;;;;;;;;;5060304;28;20783;-72
2022/01/20 08:44:25;;;;;;;7.20;2.57;;;;;;;;;;5056490;28;20903;-68
2022/01/20 08:46:52;;;;;;;5.90;2.90;;;;;;;;;;5074550;28;20405;-70
2022/01/20 08:49:19;;;;;;;5.23;3.83;;;;;;;;;;5056475;28;20405;-68
2022/01/20 08:51:45;;;;;;;9.33;2.73;;;;;;;;;;5056396;28;20478;-68
2022/01/20 08:54:11;;;;;;;5.00;2.90;;;;;;;;;;5074105;28;20497;-69
2022/01/20 08:56:37;;;;;;;4.77;2.80;;;;;;;;;;5074323;28;20411;-69
2022/01/20 08:59:05;;;;;;;3.30;3.00;;;;;;;;;;5073994;28;20498;-71
2022/01/20 09:01:31;;;;;;;6.03;3.07;;;;;;;;;;5074170;28;20414;-69
2022/01/20 09:03:57;;;;;;;9.33;2.60;;;;;;;;;;5074226;28;20569;-70
2022/01/20 09:06:23;;;;;;;12.60;3.13;;;;;;;;;;5074072;28;20518;-69
2022/01/20 09:08:49;;;;;;;9.93;3.17;;;;;;;;;;5073998;28;20527;-69
2022/01/20 09:11:20;;;;;;;3.60;2.60;;;;;;;;;;5073797;28;20974;-69
2022/01/20 09:16:36;;;;;;;6.37;2.73;;;;;;;;;;5074210;28;20676;-69
2022/01/20 09:19:02;;;;;;;5.13;3.23;;;;;;;;;;5073824;28;20410;-70
2022/01/20 09:21:28;;;;;;;10.00;4.20;;;;;;;;;;5073690;28;20410;-70
2022/01/20 09:23:55;;;;;;;6.17;3.10;;;;;;;;;;5073666;28;20912;-70
2022/01/20 09:26:21;;;;;;;5.77;2.90;;;;;;;;;;5073584;28;20405;-69
2022/01/20 09:28:48;;;;;;;5.50;2.20;;;;;;;;;;5055382;28;20406;-69
2022/01/20 09:31:14;;;;;;;6.20;2.70;;;;;;;;;;5073281;28;20948;-69
2022/01/20 09:33:40;;;;;;;8.70;4.00;;;;;;;;;;5073270;28;20455;-69
2022/01/20 09:36:09;;;;;;;6.93;3.33;;;;;;;;;;5073243;28;20437;-73
2022/01/20 09:38:35;;;;;;;8.07;2.80;;;;;;;;;;5073260;28;20885;-70
2022/01/20 09:41:01;;;;;;;4.17;2.60;;;;;;;;;;5073412;28;20419;-68
2022/01/20 09:43:27;;;;;;;10.47;2.97;;;;;;;;;;5073293;28;20493;-71
2022/01/20 09:45:55;;;;;;;8.60;3.00;;;;;;;;;;5072717;28;20853;-72
2022/01/20 09:48:22;;;;;;;4.80;2.80;;;;;;;;;;5073377;28;20492;-71
2022/01/20 09:50:48;;;;;;;6.53;2.60;;;;;;;;;;5055279;28;20472;-72
2022/01/20 09:53:14;;;;;;;7.60;3.27;;;;;;;;;;5073138;28;20428;-72
2022/01/20 09:55:40;;;;;;;6.93;3.40;;;;;;;;;;5073378;28;20501;-72
2022/01/20 09:58:07;;;;;;;2.93;2.63;;;;;;;;;;5073213;28;20426;-70
2022/01/20 10:00:34;;;;;;;7.70;2.83;;;;;;;;;;5073091;28;20462;-71
2022/01/20 10:03:01;;;;;;;6.83;2.80;;;;;;;;;;5073194;28;20410;-72
2022/01/20 10:05:32;;;;;;;7.63;2.80;;;;;;;;;;5073218;28;20450;-72
2022/01/20 10:08:02;;;;;;;10.63;3.20;;;;;;;;;;5073186;28;20445;-73
2022/01/20 10:10:38;;;;;;;9.43;2.80;;;;;;;;;;5073071;28;20794;-70
2022/01/20 10:13:05;;;;;;;9.70;2.90;;;;;;;;;;5073105;28;20429;-74
2022/01/20 10:15:31;;;;;;;9.63;3.27;;;;;;;;;;5073259;28;20398;-70
2022/01/20 10:18:07;;;;;;;7.60;3.97;;;;;;;;;;5073092;28;20417;-71
2022/01/20 10:20:33;;;;;;;11.73;3.27;;;;;;;;;;5073081;28;20765;-72
2022/01/20 10:22:59;;;;;;;6.90;2.40;;;;;;;;;;5072974;28;20425;-73
2022/01/20 10:25:25;;;;;;;3.90;2.80;;;;;;;;;;5072880;28;20394;-71
2022/01/20 10:27:53;;;;;;;4.13;2.50;;;;;;;;;;5072900;28;20412;-68
2022/01/20 10:30:19;;;;;;;5.53;2.50;;;;;;;;;;5072963;28;20478;-72
2022/01/20 10:32:47;;;;;;;11.90;3.67;;;;;;;;;;5054767;28;20447;-70
2022/01/20 10:35:14;;;;;;;6.47;2.93;;;;;;;;;;5072943;28;20505;-70
2022/01/20 10:37:41;;;;;;;8.90;3.50;;;;;;;;;;5072858;28;20402;-71
2022/01/20 10:40:14;;;;;;;6.97;3.40;;;;;;;;;;5072839;28;20884;-70
2022/01/20 10:42:42;;;;;;;9.50;3.20;;;;;;;;;;5072754;28;20402;-69
2022/01/20 10:45:09;;;;;;;5.97;2.90;;;;;;;;;;5072783;28;20752;-73
2022/01/20 10:47:36;;;;;;;3.63;2.93;;;;;;;;;;5072891;28;20492;-73
2022/01/20 10:50:10;;;;;;;6.80;3.20;;;;;;;;;;5072632;28;20509;-72
2022/01/20 10:52:36;;;;;;;8.73;3.63;;;;;;;;;;5072664;28;20412;-73
2022/01/20 10:55:03;;;;;;;5.27;3.37;;;;;;;;;;5054732;28;20804;-73
2022/01/20 10:57:30;;;;;;;5.50;2.90;;;;;;;;;;5076294;28;20440;-73
2022/01/20 10:59:58;;;;;;;4.87;2.90;;;;;;;;;;5076233;28;20463;-75
2022/01/20 11:02:29;;;;;;;7.20;3.37;;;;;;;;;;5058462;28;20452;-71
2022/01/20 11:04:55;;;;;;;7.53;4.00;;;;;;;;;;5058503;28;20803;-74
2022/01/20 11:07:22;;;;;;;4.60;2.87;;;;;;;;;;5076414;28;21019;-74
2022/01/20 11:09:55;;;;;;;5.00;3.40;;;;;;;;;;5076377;28;20402;-74
2022/01/20 11:12:21;;;;;;;11.23;3.87;;;;;;;;;;5076241;28;20413;-71
2022/01/20 11:14:49;;;;;;;5.53;3.10;;;;;;;;;;5075977;28;20756;-69
2022/01/20 11:17:19;;;;;;;6.60;3.53;;;;;;;;;;5076056;28;20413;-70
2022/01/20 11:19:46;;;;;;;6.10;3.60;;;;;;;;;;5076052;28;20994;-68
2022/01/20 11:22:13;;;;;;;5.10;3.60;;;;;;;;;;5075872;28;20402;-67
2022/01/20 11:24:41;;;;;;;8.10;3.00;;;;;;;;;;5075939;28;20479;-68
2022/01/20 11:27:08;;;;;;;5.83;3.43;;;;;;;;;;5075974;28;20405;-68
2022/01/20 11:29:45;;;;;;;7.17;3.70;;;;;;;;;;5075813;28;20446;-70
2022/01/20 11:32:15;;;;;;;5.83;3.00;;;;;;;;;;5075818;28;20565;-69
2022/01/20 11:34:42;;;;;;;4.70;3.30;;;;;;;;;;5075619;28;20390;-69
2022/01/20 11:37:08;;;;;;;6.40;3.73;;;;;;;;;;5075694;28;20433;-68
2022/01/20 11:39:34;;;;;;;4.17;3.00;;;;;;;;;;5075864;28;20798;-69
2022/01/20 11:42:01;;;;;;;5.67;3.60;;;;;;;;;;5075599;28;20869;-69
2022/01/20 11:44:31;;;;;;;7.77;3.47;;;;;;;;;;5075697;28;20441;-69
2022/01/20 11:47:05;;;;;;;8.17;3.50;;;;;;;;;;5075708;28;20394;-69
2022/01/20 11:49:38;;;;;;;4.80;3.50;;;;;;;;;;5075551;28;20406;-69
2022/01/20 11:52:04;;;;;;;9.03;3.37;;;;;;;;;;5075484;28;20508;-70
2022/01/20 11:54:32;;;;;;;4.73;3.00;;;;;;;;;;5075363;28;20401;-68
2022/01/20 11:57:13;;;;;;;5.87;3.10;;;;;;;;;;5075419;28;20501;-68
2022/01/20 11:59:47;;;;;;;7.60;3.27;;;;;;;;;;5070050;28;21060;-67
2022/01/20 12:02:35;;;;;;;4.40;2.33;;;;;;;;;;5095445;28;20417;-70
2022/01/20 12:05:15;;;;;;;8.90;3.23;;;;;;;;;;5095409;28;20912;-68
2022/01/20 12:07:41;;;;;;;9.60;3.43;;;;;;;;;;5094580;28;20952;-68
2022/01/20 12:10:15;;;;;;;6.50;3.00;;;;;;;;;;5095442;28;20474;-69
2022/01/20 12:12:42;;;;;;;6.20;2.50;;;;;;;;;;5095178;28;20407;-69
2022/01/20 12:15:11;;;;;;;6.20;3.00;;;;;;;;;;5094109;28;20397;-68
2022/01/20 12:17:41;;;;;;;7.37;2.50;;;;;;;;;;5094011;28;20471;-70
2022/01/20 12:20:07;;;;;;;3.70;2.70;;;;;;;;;;5095486;28;20864;-70
2022/01/20 12:22:38;;;;;;;4.93;3.00;;;;;;;;;;5095087;28;20404;-69
2022/01/20 12:25:04;;;;;;;4.97;2.97;;;;;;;;;;5095208;28;20491;-69
2022/01/20 12:27:30;;;;;;;5.90;3.23;;;;;;;;;;5095088;28;20408;-69
2022/01/20 12:29:56;;;;;;;6.40;3.00;;;;;;;;;;5093659;28;20411;-69
2022/01/20 12:32:24;;;;;;;2.30;1.07;;;;;;;;;;5093753;28;20919;-68
2022/01/20 12:35:00;;;;;;;3.55;1.65;;;;;;;;;;5094755;28;20755;-67
2022/01/20 12:37:33;;;;;;;2.50;1.55;;;;;;;;;;5094836;28;20707;-69
2022/01/20 12:39:59;;;;;;;4.68;1.98;;;;;;;;;;5094687;28;20656;-69
2022/01/20 12:42:32;;;;;;;2.10;1.50;;;;;;;;;;5094812;28;20175;-69
2022/01/20 12:47:48;;;;;;;4.18;1.90;;;;;;;;;;5074798;28;20326;-67
2022/01/20 12:50:14;;;;;;;2.90;1.73;;;;;;;;;;5093295;28;20228;-69
2022/01/20 12:52:50;;;;;;;3.40;1.97;;;;;;;;;;5094610;28;20799;-71
2022/01/20 12:55:17;;;;;;;8.48;1.92;;;;;;;;;;5094496;28;20400;-68
2022/01/20 12:57:44;;;;;;;6.05;2.55;;;;;;;;;;5090244;28;20183;-69
2022/01/20 13:00:10;;;;;;;4.10;1.95;;;;;;;;;;5078413;28;20572;-70
2022/01/20 13:02:37;;;;;;;1.98;1.88;;;;;;;;;;5073125;28;20262;-69
2022/01/20 13:05:06;;;;;;;3.97;1.60;;;;;;;;;;5060064;28;20202;-69
2022/01/20 13:07:35;;;;;;;7.18;2.20;;;;;;;;;;5059051;28;20184;-70
2022/01/20 13:10:17;;;;;;;4.22;2.38;;;;;;;;;;5066507;28;20218;-69
2022/01/20 13:12:43;;;;;;;4.13;2.13;;;;;;;;;;5061533;28;20237;-69
2022/01/20 13:15:19;;;;;;;2.07;1.53;;;;;;;;;;5069100;28;20434;-69
2022/01/20 13:17:46;;;;;;;5.80;2.50;;;;;;;;;;5065046;28;20413;-67
2022/01/20 13:20:15;;;;;;;4.43;2.03;;;;;;;;;;5070620;28;20459;-68
2022/01/20 13:22:57;;;;;;;5.20;2.13;;;;;;;;;;5062304;28;20433;-70
2022/01/20 13:25:24;;;;;;;9.63;2.40;;;;;;;;;;5061903;28;20547;-69
2022/01/20 13:27:51;;;;;;;3.70;1.80;;;;;;;;;;5062947;28;20917;-70
2022/01/20 13:30:30;;;;;;;4.00;1.83;;;;;;;;;;5069533;28;20513;-74
2022/01/20 13:32:57;;;;;;;4.23;2.17;;;;;;;;;;5059575;28;20430;-69
2022/01/20 13:35:23;;;;;;;7.70;1.88;;;;;;;;;;5065952;28;20418;-69
2022/01/20 13:37:59;;;;;;;3.20;2.50;;;;;;;;;;5063355;28;20216;-69
2022/01/20 13:40:26;;;;;;;6.70;2.53;;;;;;;;;;5064029;28;20417;-70
2022/01/20 13:45:38;;;;;;;2.75;1.67;;;;;;;;;;5054225;28;20203;-69
2022/01/20 13:48:04;;;;;;;2.73;2.00;;;;;;;;;;5047072;28;20831;-66
2022/01/20 13:50:31;;;;;;;3.57;2.03;;;;;;;;;;5048620;28;20478;-69
2022/01/20 13:52:58;;;;;;;8.47;2.20;;;;;;;;;;5064369;28;20437;-69
2022/01/20 13:55:29;;;;;;;4.13;1.98;;;;;;;;;;5068154;28;20939;-68
2022/01/20 13:57:56;;;;;;;4.20;2.35;;;;;;;;;;5066391;28;20167;-68
2022/01/20 14:00:27;;;;;;;5.27;2.30;;;;;;;;;;5075530;28;20226;-68
2022/01/20 14:02:53;;;;;;;5.07;2.55;;;;;;;;;;5092318;28;20834;-68
2022/01/20 14:05:21;;;;;;;6.23;2.60;;;;;;;;;;5080143;28;20192;-68
2022/01/20 14:07:47;;;;;;;5.43;2.72;;;;;;;;;;5090612;28;20467;-68
2022/01/20 14:10:14;;;;;;;6.13;2.42;;;;;;;;;;5084309;28;20223;-68
2022/01/20 14:12:40;;;;;;;3.50;2.37;;;;;;;;;;5092453;28;20236;-68
2022/01/20 14:15:06;;;;;;;5.45;2.55;;;;;;;;;;5092367;28;20402;-68
2022/01/20 14:17:37;;;;;;;9.95;2.67;;;;;;;;;;5078272;28;20210;-71
2022/01/20 14:20:10;;;;;;;8.02;3.20;;;;;;;;;;5090747;28;20182;-73
2022/01/20 14:22:36;;;;;;;5.40;2.63;;;;;;;;;;5085482;28;20187;-68
2022/01/20 14:25:02;;;;;;;6.03;2.70;;;;;;;;;;5086510;28;20201;-67
2022/01/20 14:27:28;;;;;;;8.67;3.10;;;;;;;;;;5090848;28;20425;-67
2022/01/20 14:29:54;;;;;;;6.27;2.80;;;;;;;;;;5090158;28;20753;-65
2022/01/20 14:32:21;;;;;;;7.67;2.67;;;;;;;;;;5079779;28;20420;-67
2022/01/20 14:34:47;;;;;;;4.47;2.87;;;;;;;;;;5086808;28;20482;-69
2022/01/20 14:37:13;;;;;;;9.83;3.00;;;;;;;;;;5085753;28;20420;-68
2022/01/20 14:39:39;;;;;;;10.88;3.22;;;;;;;;;;5085498;28;20395;-66
2022/01/20 14:42:06;;;;;;;8.03;2.80;;;;;;;;;;5087402;28;20496;-76
2022/01/20 14:44:32;;;;;;;6.33;2.47;;;;;;;;;;5091406;28;20511;-70
2022/01/20 14:46:58;;;;;;;7.55;2.78;;;;;;;;;;5086873;28;20417;-70
2022/01/20 14:49:24;;;;;;;4.77;2.70;;;;;;;;;;5094359;28;20184;-70
2022/01/20 14:51:50;;;;;;;2.67;2.30;;;;;;;;;;5094528;28;20500;-67
2022/01/20 14:54:16;;;;;;;7.67;2.43;;;;;;;;;;5079150;28;20413;-66
2022/01/20 14:56:43;;;;;;;5.90;3.13;;;;;;;;;;5090855;28;20463;-66
2022/01/20 14:59:09;;;;;;;5.27;2.80;;;;;;;;;;5091627;28;20216;-68
2022/01/20 15:01:36;;;;;;;8.20;2.50;;;;;;;;;;5075269;28;20422;-65
2022/01/20 15:04:03;;;;;;;9.10;2.97;;;;;;;;;;5074065;28;20426;-67
2022/01/20 15:06:29;;;;;;;11.93;3.57;;;;;;;;;;5072811;28;20414;-69
2022/01/20 15:08:55;;;;;;;10.10;2.80;;;;;;;;;;5074724;28;20421;-66
2022/01/20 15:11:21;;;;;;;5.27;2.37;;;;;;;;;;5073443;28;20480;-68
2022/01/20 15:13:47;;;;;;;3.33;2.10;;;;;;;;;;5054843;28;20431;-66
2022/01/20 15:16:13;;;;;;;9.13;2.70;;;;;;;;;;5054500;28;20414;-68
2022/01/20 15:18:40;;;;;;;8.50;3.00;;;;;;;;;;5073427;28;20509;-68
2022/01/20 15:21:06;;;;;;;7.13;2.83;;;;;;;;;;5068363;28;20469;-68
2022/01/20 15:23:32;;;;;;;3.00;2.30;;;;;;;;;;5056105;28;20873;-68
2022/01/20 15:25:59;;;;;;;5.93;3.03;;;;;;;;;;5054354;28;20432;-68
2022/01/20 15:28:29;;;;;;;5.63;3.10;;;;;;;;;;5056831;28;20460;-68
2022/01/20 15:30:56;;;;;;;7.27;3.67;;;;;;;;;;5063961;28;20468;-68
2022/01/20 15:33:22;;;;;;;5.30;2.37;;;;;;;;;;5062034;28;20457;-68
2022/01/20 15:35:48;;;;;;;7.20;3.37;;;;;;;;;;5068842;28;20425;-68
2022/01/20 15:38:14;;;;;;;10.60;3.38;;;;;;;;;;5071562;28;20411;-69
2022/01/20 15:40:40;;;;;;;11.15;3.38;;;;;;;;;;5058943;28;20262;-69
2022/01/20 15:43:06;;;;;;;4.97;3.37;;;;;;;;;;5068575;28;20262;-75
2022/01/20 15:45:32;;;;;;;9.57;2.80;;;;;;;;;;5070902;28;20420;-68
2022/01/20 15:47:58;;;;;;;5.88;2.47;;;;;;;;;;5070299;28;20512;-68
2022/01/20 15:50:24;;;;;;;6.40;2.77;;;;;;;;;;5069755;28;20299;-69
2022/01/20 15:52:50;;;;;;;5.33;2.73;;;;;;;;;;5073502;28;20809;-69
2022/01/20 15:55:16;;;;;;;7.00;2.50;;;;;;;;;;5074118;28;20430;-68
2022/01/20 15:57:43;;;;;;;5.63;2.08;;;;;;;;;;5055653;28;20786;-69